createdAt,value
2019-02-28T00:00:59.498Z,4.58
2019-02-28T00:02:03.909Z,4.83
2019-02-28T00:03:07.525Z,5.28
2019-02-28T00:04:11.080Z,4.75
2019-02-28T00:05:14.582Z,21.70
2019-02-28T00:06:18.170Z,31.12
2019-02-28T00:07:21.584Z,21.50
2019-02-28T00:08:25.174Z,21.55
2019-02-28T00:09:28.688Z,19.05
2019-02-28T00:10:32.196Z,19.82
2019-02-28T00:11:36.115Z,12.15
2019-02-28T00:12:40.946Z,7.72
2019-02-28T00:13:44.412Z,5.80
2019-02-28T00:14:47.883Z,5.35
2019-02-28T00:15:51.382Z,5.45
2019-02-28T00:16:54.881Z,4.97
2019-02-28T00:17:58.389Z,4.85
2019-02-28T00:19:01.837Z,4.92
2019-02-28T00:20:09.273Z,4.37
2019-02-28T00:21:12.890Z,5.05
2019-02-28T00:22:16.332Z,4.80
2019-02-28T00:23:21.966Z,4.75
2019-02-28T00:24:27.224Z,3.37
2019-02-28T00:25:30.373Z,3.58
2019-02-28T00:26:33.819Z,3.90
2019-02-28T00:27:37.307Z,3.15
2019-02-28T00:28:40.741Z,3.00
2019-02-28T00:29:44.185Z,3.22
2019-02-28T00:30:47.633Z,2.58
2019-02-28T00:31:51.123Z,2.83
2019-02-28T00:32:56.425Z,2.58
2019-02-28T00:34:04.578Z,2.55
2019-02-28T00:35:06.546Z,2.45
2019-02-28T00:36:09.986Z,2.45
2019-02-28T00:37:13.417Z,2.70
2019-02-28T00:38:16.861Z,2.65
2019-02-28T00:39:20.287Z,2.47
2019-02-28T00:40:23.839Z,2.00
2019-02-28T00:41:27.289Z,2.52
2019-02-28T00:42:30.729Z,2.60
2019-02-28T00:43:34.163Z,2.62
2019-02-28T00:44:37.659Z,2.45
2019-02-28T00:45:41.123Z,2.58
2019-02-28T00:46:45.394Z,2.27
2019-02-28T00:47:48.943Z,2.55
2019-02-28T00:48:54.063Z,2.60
2019-02-28T00:49:57.572Z,2.30
2019-02-28T00:51:01.035Z,2.37
2019-02-28T00:52:04.539Z,2.50
2019-02-28T00:53:07.961Z,2.70
2019-02-28T00:54:11.379Z,2.80
2019-02-28T00:55:15.550Z,2.70
2019-02-28T00:56:19.142Z,3.92
2019-02-28T00:57:23.632Z,3.58
2019-02-28T00:58:29.002Z,4.00
2019-02-28T00:59:32.993Z,4.22
2019-02-28T01:00:38.054Z,3.95
2019-02-28T01:01:43.038Z,3.95
2019-02-28T01:02:52.097Z,3.02
2019-02-28T01:03:51.923Z,4.05
2019-02-28T01:04:55.350Z,3.60
2019-02-28T01:05:58.774Z,2.80
2019-02-28T01:07:02.289Z,3.20
2019-02-28T01:08:05.734Z,3.95
2019-02-28T01:09:09.336Z,3.05
2019-02-28T01:10:13.206Z,3.65
2019-02-28T01:11:16.636Z,3.45
2019-02-28T01:12:20.209Z,4.47
2019-02-28T01:13:27.265Z,2.98
2019-02-28T01:14:28.755Z,3.55
2019-02-28T01:15:32.255Z,4.00
2019-02-28T01:16:35.676Z,3.72
2019-02-28T01:17:39.195Z,4.35
2019-02-28T01:18:42.654Z,4.05
2019-02-28T01:19:46.078Z,3.62
2019-02-28T01:20:50.717Z,4.10
2019-02-28T01:21:55.390Z,4.12
2019-02-28T01:22:59.576Z,4.00
2019-02-28T01:24:02.998Z,3.50
2019-02-28T01:25:09.860Z,3.72
2019-02-28T01:26:13.279Z,3.00
2019-02-28T01:27:17.397Z,3.33
2019-02-28T01:28:23.399Z,2.85
2019-02-28T01:29:27.206Z,2.20
2019-02-28T01:30:30.637Z,2.55
2019-02-28T01:31:34.084Z,2.40
2019-02-28T01:32:37.620Z,3.00
2019-02-28T01:33:41.097Z,3.02
2019-02-28T01:34:44.524Z,2.47
2019-02-28T01:35:47.962Z,2.22
2019-02-28T01:36:51.396Z,2.58
2019-02-28T01:37:54.824Z,2.75
2019-02-28T01:38:58.849Z,3.10
2019-02-28T01:40:04.522Z,2.62
2019-02-28T01:41:08.367Z,2.90
2019-02-28T01:42:12.726Z,3.05
2019-02-28T01:43:16.159Z,2.75
2019-02-28T01:44:19.739Z,2.92
2019-02-28T01:45:23.236Z,2.85
2019-02-28T01:46:26.745Z,2.67
2019-02-28T01:47:30.244Z,3.60
2019-02-28T01:48:33.665Z,3.22
2019-02-28T01:49:37.119Z,2.90
2019-02-28T01:50:40.565Z,2.65
2019-02-28T01:51:44.082Z,3.00
2019-02-28T01:52:47.531Z,3.05
2019-02-28T01:53:53.540Z,3.55
2019-02-28T01:54:58.583Z,2.17
2019-02-28T01:56:02.566Z,2.90
2019-02-28T01:57:09.008Z,2.52
2019-02-28T01:58:16.428Z,2.75
2019-02-28T01:59:16.935Z,2.25
2019-02-28T02:00:20.466Z,2.52
2019-02-28T02:01:23.911Z,3.00
2019-02-28T02:02:27.348Z,3.12
2019-02-28T02:03:30.781Z,3.00
2019-02-28T02:04:34.304Z,3.05
2019-02-28T02:05:37.757Z,3.37
2019-02-28T02:06:41.186Z,3.08
2019-02-28T02:07:44.676Z,3.05
2019-02-28T02:08:48.105Z,2.62
2019-02-28T02:09:51.629Z,2.90
2019-02-28T02:10:56.131Z,2.47
2019-02-28T02:11:59.617Z,3.10
2019-02-28T02:13:03.440Z,3.15
2019-02-28T02:14:11.094Z,2.55
2019-02-28T02:15:12.874Z,2.92
2019-02-28T02:16:16.290Z,3.10
2019-02-28T02:17:19.716Z,3.55
2019-02-28T02:18:23.160Z,2.95
2019-02-28T02:19:26.604Z,3.50
2019-02-28T02:20:30.079Z,2.70
2019-02-28T02:21:34.908Z,3.30
2019-02-28T02:22:40.707Z,2.80
2019-02-28T02:23:43.912Z,3.00
2019-02-28T02:24:47.341Z,3.30
2019-02-28T02:25:50.783Z,4.05
2019-02-28T02:26:54.210Z,3.05
2019-02-28T02:27:57.660Z,2.83
2019-02-28T02:29:01.907Z,3.45
2019-02-28T02:30:15.942Z,3.60
2019-02-28T02:31:19.659Z,3.10
2019-02-28T02:32:23.227Z,3.98
2019-02-28T02:33:26.652Z,3.12
2019-02-28T02:34:30.090Z,3.02
2019-02-28T02:35:33.539Z,2.55
2019-02-28T02:36:37.060Z,3.50
2019-02-28T02:37:40.498Z,3.55
2019-02-28T02:38:43.934Z,3.12
2019-02-28T02:39:50.098Z,2.70
2019-02-28T02:40:59.254Z,2.50
2019-02-28T02:41:57.690Z,2.80
2019-02-28T02:43:01.121Z,2.77
2019-02-28T02:44:04.615Z,2.80
2019-02-28T02:45:09.998Z,2.60
2019-02-28T02:46:19.634Z,2.77
2019-02-28T02:47:18.648Z,2.70
2019-02-28T02:48:22.076Z,2.70
2019-02-28T02:49:25.558Z,2.40
2019-02-28T02:50:34.289Z,2.47
2019-02-28T02:51:34.190Z,2.62
2019-02-28T02:52:37.632Z,2.72
2019-02-28T02:53:42.030Z,2.80
2019-02-28T02:54:46.284Z,2.42
2019-02-28T02:55:49.719Z,2.52
2019-02-28T02:56:53.146Z,3.00
2019-02-28T02:57:56.646Z,2.50
2019-02-28T02:59:02.129Z,2.35
2019-02-28T03:00:15.084Z,2.37
2019-02-28T03:01:23.198Z,2.37
2019-02-28T03:02:23.947Z,2.10
2019-02-28T03:03:27.445Z,2.40
2019-02-28T03:04:30.882Z,2.50
2019-02-28T03:05:35.756Z,3.40
2019-02-28T03:06:39.459Z,2.58
2019-02-28T03:07:43.152Z,3.70
2019-02-28T03:08:46.660Z,4.05
2019-02-28T03:09:50.199Z,4.37
2019-02-28T03:10:53.606Z,5.00
2019-02-28T03:11:57.987Z,5.28
2019-02-28T03:13:04.865Z,4.95
2019-02-28T03:14:07.364Z,5.03
2019-02-28T03:15:13.899Z,3.42
2019-02-28T03:16:17.347Z,3.05
2019-02-28T03:17:20.751Z,3.60
2019-02-28T03:18:24.204Z,2.65
2019-02-28T03:19:33.148Z,2.62
2019-02-28T03:20:32.778Z,2.87
2019-02-28T03:21:36.274Z,3.02
2019-02-28T03:22:39.696Z,2.83
2019-02-28T03:23:43.159Z,3.10
2019-02-28T03:24:50.467Z,3.35
2019-02-28T03:25:51.741Z,3.40
2019-02-28T03:26:55.153Z,3.17
2019-02-28T03:27:58.598Z,3.37
2019-02-28T03:29:07.485Z,4.20
2019-02-28T03:30:10.451Z,3.40
2019-02-28T03:31:15.427Z,3.60
2019-02-28T03:32:19.039Z,3.85
2019-02-28T03:33:27.412Z,3.20
2019-02-28T03:34:27.798Z,3.20
2019-02-28T03:35:40.410Z,3.10
2019-02-28T03:36:36.556Z,2.95
2019-02-28T03:37:40.028Z,2.75
2019-02-28T03:38:48.276Z,2.90
2019-02-28T03:39:48.641Z,2.22
2019-02-28T03:40:52.063Z,3.10
2019-02-28T03:41:55.863Z,2.65
2019-02-28T03:43:05.530Z,2.75
2019-02-28T03:44:04.708Z,2.70
2019-02-28T03:45:10.569Z,2.52
2019-02-28T03:46:13.995Z,3.17
2019-02-28T03:47:22.785Z,2.42
2019-02-28T03:48:22.573Z,2.10
2019-02-28T03:49:25.996Z,2.62
2019-02-28T03:50:29.434Z,2.70
2019-02-28T03:51:32.889Z,2.67
2019-02-28T03:52:41.799Z,2.60
2019-02-28T03:53:41.442Z,2.70
2019-02-28T03:54:44.865Z,3.20
2019-02-28T03:55:48.379Z,2.95
2019-02-28T03:56:53.383Z,2.80
2019-02-28T03:58:04.361Z,2.95
2019-02-28T03:59:02.121Z,2.80
2019-02-28T04:00:22.157Z,2.72
2019-02-28T04:01:25.669Z,3.40
2019-02-28T04:02:29.125Z,3.33
2019-02-28T04:03:33.702Z,3.55
2019-02-28T04:04:37.917Z,3.02
2019-02-28T04:05:41.825Z,3.05
2019-02-28T04:06:45.348Z,3.02
2019-02-28T04:07:53.442Z,3.45
2019-02-28T04:08:54.052Z,2.35
2019-02-28T04:09:57.490Z,3.15
2019-02-28T04:11:00.917Z,2.80
2019-02-28T04:12:08.652Z,2.58
2019-02-28T04:13:09.613Z,3.02
2019-02-28T04:14:13.046Z,1.98
2019-02-28T04:15:18.778Z,2.60
2019-02-28T04:16:22.212Z,2.37
2019-02-28T04:17:30.079Z,2.77
2019-02-28T04:18:30.822Z,2.55
2019-02-28T04:19:34.341Z,2.47
2019-02-28T04:20:38.032Z,2.67
2019-02-28T04:21:46.186Z,2.50
2019-02-28T04:22:46.793Z,2.45
2019-02-28T04:23:50.223Z,1.98
2019-02-28T04:24:53.652Z,2.22
2019-02-28T04:25:57.922Z,3.00
2019-02-28T04:27:06.055Z,2.70
2019-02-28T04:28:06.609Z,2.20
2019-02-28T04:29:10.042Z,2.55
2019-02-28T04:30:15.454Z,1.87
2019-02-28T04:31:20.200Z,1.75
2019-02-28T04:32:27.581Z,1.72
2019-02-28T04:33:28.953Z,1.40
2019-02-28T04:34:32.379Z,1.85
2019-02-28T04:35:35.814Z,1.42
2019-02-28T04:36:39.262Z,2.00
2019-02-28T04:37:46.810Z,2.00
2019-02-28T04:38:47.935Z,1.82
2019-02-28T04:39:53.322Z,2.00
2019-02-28T04:40:58.900Z,2.02
2019-02-28T04:42:05.044Z,1.55
2019-02-28T04:43:07.239Z,1.72
2019-02-28T04:44:12.132Z,1.60
2019-02-28T04:45:15.698Z,1.47
2019-02-28T04:46:19.141Z,2.22
2019-02-28T04:47:22.728Z,1.60
2019-02-28T04:48:26.180Z,1.47
2019-02-28T04:49:29.605Z,1.80
2019-02-28T04:50:33.101Z,1.60
2019-02-28T04:51:37.043Z,2.80
2019-02-28T04:52:46.664Z,1.85
2019-02-28T04:53:46.855Z,1.85
2019-02-28T04:54:50.359Z,1.92
2019-02-28T04:55:53.795Z,1.67
2019-02-28T04:56:57.223Z,1.65
2019-02-28T04:58:00.732Z,1.30
2019-02-28T04:59:04.286Z,1.67
2019-02-28T05:00:12.688Z,2.10
2019-02-28T05:01:16.194Z,1.60
2019-02-28T05:02:20.632Z,1.60
2019-02-28T05:03:27.981Z,2.00
2019-02-28T05:04:29.246Z,1.70
2019-02-28T05:05:32.773Z,1.30
2019-02-28T05:06:36.277Z,1.77
2019-02-28T05:07:39.693Z,1.85
2019-02-28T05:08:43.211Z,3.08
2019-02-28T05:09:48.126Z,2.17
2019-02-28T05:10:55.654Z,2.35
2019-02-28T05:11:57.097Z,1.50
2019-02-28T05:13:00.527Z,2.17
2019-02-28T05:14:04.025Z,1.80
2019-02-28T05:15:09.762Z,1.60
2019-02-28T05:16:13.235Z,1.87
2019-02-28T05:17:19.304Z,1.55
2019-02-28T05:18:21.875Z,1.65
2019-02-28T05:19:25.301Z,2.20
2019-02-28T05:20:28.745Z,1.50
2019-02-28T05:21:32.260Z,1.87
2019-02-28T05:22:35.714Z,1.80
2019-02-28T05:23:39.135Z,2.05
2019-02-28T05:24:43.619Z,1.75
2019-02-28T05:25:49.118Z,2.05
2019-02-28T05:26:52.371Z,1.87
2019-02-28T05:27:55.800Z,2.12
2019-02-28T05:28:59.211Z,2.35
2019-02-28T05:30:02.729Z,1.75
2019-02-28T05:31:06.258Z,1.90
2019-02-28T05:32:09.721Z,2.45
2019-02-28T05:33:13.353Z,1.62
2019-02-28T05:34:17.009Z,2.00
2019-02-28T05:35:25.467Z,2.77
2019-02-28T05:36:25.811Z,2.33
2019-02-28T05:37:29.396Z,2.10
2019-02-28T05:38:33.091Z,2.45
2019-02-28T05:39:36.646Z,2.17
2019-02-28T05:40:41.365Z,2.22
2019-02-28T05:41:49.105Z,3.60
2019-02-28T05:42:50.330Z,2.77
2019-02-28T05:43:53.815Z,3.55
2019-02-28T05:44:57.315Z,2.62
2019-02-28T05:46:00.955Z,2.35
2019-02-28T05:47:04.472Z,2.33
2019-02-28T05:48:07.987Z,2.40
2019-02-28T05:49:11.498Z,3.42
2019-02-28T05:50:16.695Z,2.08
2019-02-28T05:51:20.199Z,2.85
2019-02-28T05:52:23.660Z,2.22
2019-02-28T05:53:27.109Z,1.85
2019-02-28T05:54:30.611Z,2.47
2019-02-28T05:55:34.050Z,2.00
2019-02-28T05:56:37.469Z,2.20
2019-02-28T05:57:43.364Z,1.87
2019-02-28T05:58:46.147Z,1.60
2019-02-28T05:59:49.572Z,1.65
2019-02-28T06:00:53.064Z,2.40
2019-02-28T06:01:56.492Z,2.40
2019-02-28T06:02:59.948Z,2.22
2019-02-28T06:04:04.046Z,2.27
2019-02-28T06:05:08.366Z,1.92
2019-02-28T06:06:13.398Z,2.33
2019-02-28T06:07:16.855Z,2.20
2019-02-28T06:08:20.387Z,2.15
2019-02-28T06:09:23.921Z,2.50
2019-02-28T06:10:27.344Z,2.35
2019-02-28T06:11:34.547Z,2.75
2019-02-28T06:12:35.920Z,3.08
2019-02-28T06:13:39.384Z,2.92
2019-02-28T06:14:42.835Z,2.85
2019-02-28T06:15:46.399Z,3.50
2019-02-28T06:16:49.848Z,3.70
2019-02-28T06:17:54.974Z,3.50
2019-02-28T06:18:58.547Z,6.20
2019-02-28T06:20:02.046Z,4.55
2019-02-28T06:21:05.540Z,4.40
2019-02-28T06:22:08.992Z,4.65
2019-02-28T06:23:12.494Z,4.20
2019-02-28T06:24:15.955Z,3.75
2019-02-28T06:25:23.618Z,4.50
2019-02-28T06:26:24.640Z,3.90
2019-02-28T06:27:28.086Z,4.55
2019-02-28T06:28:31.966Z,4.53
2019-02-28T06:29:36.814Z,4.90
2019-02-28T06:30:42.484Z,6.33
2019-02-28T06:31:48.594Z,5.65
2019-02-28T06:32:51.055Z,5.75
2019-02-28T06:33:54.726Z,5.78
2019-02-28T06:34:59.831Z,5.33
2019-02-28T06:36:04.638Z,4.80
2019-02-28T06:37:08.195Z,4.10
2019-02-28T06:38:11.627Z,4.25
2019-02-28T06:39:15.062Z,4.60
2019-02-28T06:40:18.748Z,5.03
2019-02-28T06:41:22.192Z,3.90
2019-02-28T06:42:25.620Z,4.08
2019-02-28T06:43:29.059Z,4.20
2019-02-28T06:44:32.512Z,4.95
2019-02-28T06:45:37.617Z,4.20
2019-02-28T06:46:41.419Z,4.97
2019-02-28T06:47:48.253Z,6.15
2019-02-28T06:48:50.079Z,5.75
2019-02-28T06:49:53.523Z,5.53
2019-02-28T06:50:57.075Z,5.78
2019-02-28T06:52:00.537Z,5.15
2019-02-28T06:53:04.016Z,4.80
2019-02-28T06:54:08.586Z,5.00
2019-02-28T06:55:22.804Z,5.03
2019-02-28T06:56:26.236Z,5.80
2019-02-28T06:57:29.751Z,5.67
2019-02-28T06:58:33.903Z,5.37
2019-02-28T06:59:39.042Z,5.22
2019-02-28T07:00:44.224Z,6.25
2019-02-28T07:01:47.807Z,5.60
2019-02-28T07:02:51.239Z,7.28
2019-02-28T07:03:54.700Z,5.75
2019-02-28T07:04:58.199Z,6.10
2019-02-28T07:06:02.001Z,7.30
2019-02-28T07:07:07.329Z,6.20
2019-02-28T07:08:10.799Z,5.83
2019-02-28T07:09:14.384Z,5.85
2019-02-28T07:10:18.410Z,7.42
2019-02-28T07:11:21.819Z,6.80
2019-02-28T07:12:29.556Z,6.78
2019-02-28T07:13:30.477Z,6.20
2019-02-28T07:14:33.942Z,6.47
2019-02-28T07:15:37.455Z,7.58
2019-02-28T07:16:41.070Z,7.58
2019-02-28T07:17:46.298Z,8.20
2019-02-28T07:18:52.817Z,7.05
2019-02-28T07:19:55.098Z,7.87
2019-02-28T07:20:58.666Z,7.53
2019-02-28T07:22:02.207Z,6.95
2019-02-28T07:23:05.695Z,7.53
2019-02-28T07:24:09.240Z,8.40
2019-02-28T07:25:13.864Z,8.08
2019-02-28T07:26:18.752Z,7.65
2019-02-28T07:27:23.356Z,7.12
2019-02-28T07:28:28.006Z,8.03
2019-02-28T07:29:32.108Z,9.10
2019-02-28T07:30:35.562Z,9.20
2019-02-28T07:31:39.014Z,8.40
2019-02-28T07:32:42.524Z,9.48
2019-02-28T07:33:45.975Z,9.23
2019-02-28T07:34:49.413Z,9.33
2019-02-28T07:35:54.398Z,8.28
2019-02-28T07:36:57.827Z,9.05
2019-02-28T07:38:01.339Z,9.23
2019-02-28T07:39:05.731Z,8.13
2019-02-28T07:40:15.569Z,8.80
2019-02-28T07:41:17.383Z,9.20
2019-02-28T07:42:20.811Z,9.55
2019-02-28T07:43:24.286Z,9.98
2019-02-28T07:44:28.428Z,10.03
2019-02-28T07:45:33.111Z,9.33
2019-02-28T07:46:38.523Z,11.03
2019-02-28T07:47:42.324Z,11.00
2019-02-28T07:48:45.859Z,10.05
2019-02-28T07:49:50.345Z,10.98
2019-02-28T07:50:53.898Z,10.68
2019-02-28T07:51:57.978Z,11.45
2019-02-28T07:53:01.452Z,10.60
2019-02-28T07:54:05.059Z,10.82
2019-02-28T07:55:14.736Z,11.57
2019-02-28T07:56:18.176Z,11.20
2019-02-28T07:57:22.445Z,11.08
2019-02-28T07:58:26.624Z,11.75
2019-02-28T07:59:31.168Z,10.80
2019-02-28T08:00:34.681Z,12.20
2019-02-28T08:01:38.115Z,10.53
2019-02-28T08:02:41.555Z,11.43
2019-02-28T08:03:45.021Z,11.57
2019-02-28T08:04:50.677Z,11.15
2019-02-28T08:05:53.706Z,11.43
2019-02-28T08:06:57.126Z,12.63
2019-02-28T08:08:00.571Z,14.15
2019-02-28T08:09:05.876Z,13.15
2019-02-28T08:10:15.997Z,12.20
2019-02-28T08:11:20.850Z,13.32
2019-02-28T08:12:24.379Z,11.75
2019-02-28T08:13:27.894Z,12.68
2019-02-28T08:14:31.473Z,12.30
2019-02-28T08:15:34.991Z,11.90
2019-02-28T08:16:38.422Z,12.03
2019-02-28T08:17:43.912Z,12.35
2019-02-28T08:18:47.158Z,12.30
2019-02-28T08:19:50.679Z,11.33
2019-02-28T08:20:54.131Z,12.60
2019-02-28T08:21:57.630Z,11.08
2019-02-28T08:23:01.172Z,11.88
2019-02-28T08:24:05.347Z,12.03
2019-02-28T08:25:12.421Z,12.78
2019-02-28T08:26:18.779Z,12.90
2019-02-28T08:27:21.171Z,13.18
2019-02-28T08:28:25.056Z,12.53
2019-02-28T08:29:28.573Z,11.80
2019-02-28T08:30:33.655Z,12.58
2019-02-28T08:31:37.111Z,11.97
2019-02-28T08:32:44.055Z,11.70
2019-02-28T08:33:48.115Z,11.43
2019-02-28T08:34:50.886Z,11.65
2019-02-28T08:35:54.344Z,12.13
2019-02-28T08:36:57.799Z,10.78
2019-02-28T08:38:01.373Z,11.78
2019-02-28T08:39:10.064Z,12.45
2019-02-28T08:40:19.184Z,11.85
2019-02-28T08:41:25.787Z,11.73
2019-02-28T08:42:28.045Z,13.43
2019-02-28T08:43:31.562Z,12.93
2019-02-28T08:44:35.087Z,10.75
2019-02-28T08:45:38.688Z,11.73
2019-02-28T08:46:43.527Z,12.47
2019-02-28T08:47:47.373Z,12.03
2019-02-28T08:48:51.044Z,12.35
2019-02-28T08:49:54.607Z,12.88
2019-02-28T08:50:58.073Z,12.15
2019-02-28T08:52:02.559Z,12.35
2019-02-28T08:53:07.002Z,16.75
2019-02-28T08:54:10.579Z,12.30
2019-02-28T08:55:15.655Z,12.03
2019-02-28T08:56:19.096Z,13.68
2019-02-28T08:57:25.594Z,12.75
2019-02-28T08:58:27.869Z,12.73
2019-02-28T08:59:31.408Z,11.50
2019-02-28T09:00:35.056Z,12.20
2019-02-28T09:01:41.319Z,13.48
2019-02-28T09:02:43.754Z,13.45
2019-02-28T09:03:47.266Z,13.15
2019-02-28T09:04:51.026Z,12.65
2019-02-28T09:05:54.520Z,12.75
2019-02-28T09:06:58.070Z,12.63
2019-02-28T09:08:01.678Z,12.55
2019-02-28T09:09:06.346Z,12.63
2019-02-28T09:10:18.297Z,12.20
2019-02-28T09:11:21.875Z,12.20
2019-02-28T09:12:25.460Z,13.48
2019-02-28T09:13:28.987Z,12.30
2019-02-28T09:14:32.520Z,12.93
2019-02-28T09:15:36.075Z,12.55
2019-02-28T09:16:39.854Z,13.28
2019-02-28T09:17:43.959Z,12.45
2019-02-28T09:18:47.418Z,12.47
2019-02-28T09:19:50.933Z,13.58
2019-02-28T09:20:54.450Z,12.25
2019-02-28T09:21:57.881Z,13.32
2019-02-28T09:23:02.223Z,12.55
2019-02-28T09:24:09.464Z,12.93
2019-02-28T09:25:22.883Z,12.85
2019-02-28T09:26:28.298Z,12.50
2019-02-28T09:27:31.899Z,11.25
2019-02-28T09:28:35.481Z,12.10
2019-02-28T09:29:39.077Z,12.13
2019-02-28T09:30:44.800Z,12.53
2019-02-28T09:31:48.346Z,12.45
2019-02-28T09:32:51.785Z,12.80
2019-02-28T09:33:55.444Z,12.63
2019-02-28T09:35:02.498Z,13.40
2019-02-28T09:36:05.639Z,12.37
2019-02-28T09:37:09.160Z,12.45
2019-02-28T09:38:13.768Z,13.35
2019-02-28T09:39:19.537Z,12.18
2019-02-28T09:40:25.798Z,11.83
2019-02-28T09:41:27.830Z,12.45
2019-02-28T09:42:31.266Z,11.68
2019-02-28T09:43:34.708Z,12.43
2019-02-28T09:44:38.160Z,12.63
2019-02-28T09:45:41.685Z,11.53
2019-02-28T09:46:47.425Z,11.75
2019-02-28T09:47:50.437Z,11.68
2019-02-28T09:48:53.892Z,11.65
2019-02-28T09:49:57.357Z,11.57
2019-02-28T09:51:00.932Z,13.68
2019-02-28T09:52:06.296Z,12.13
2019-02-28T09:53:09.594Z,10.40
2019-02-28T09:54:13.116Z,11.50
2019-02-28T09:55:16.757Z,10.80
2019-02-28T09:56:20.215Z,11.28
2019-02-28T09:57:23.654Z,10.35
2019-02-28T09:58:29.252Z,10.00
2019-02-28T09:59:37.289Z,9.85
2019-02-28T10:00:37.726Z,9.80
2019-02-28T10:01:42.522Z,10.55
2019-02-28T10:02:46.044Z,10.40
2019-02-28T10:03:52.162Z,11.68
2019-02-28T10:04:54.734Z,10.95
2019-02-28T10:05:58.291Z,11.83
2019-02-28T10:07:01.831Z,10.32
2019-02-28T10:08:07.065Z,10.95
2019-02-28T10:09:10.625Z,10.38
2019-02-28T10:10:21.007Z,9.78
2019-02-28T10:11:23.816Z,10.95
2019-02-28T10:12:27.324Z,9.95
2019-02-28T10:13:31.080Z,10.90
2019-02-28T10:14:34.711Z,11.12
2019-02-28T10:15:38.763Z,11.68
2019-02-28T10:16:43.295Z,11.10
2019-02-28T10:17:46.994Z,10.23
2019-02-28T10:18:50.522Z,10.20
2019-02-28T10:19:53.984Z,11.05
2019-02-28T10:20:58.964Z,11.33
2019-02-28T10:22:02.706Z,10.23
2019-02-28T10:23:06.223Z,9.35
2019-02-28T10:24:09.761Z,9.48
2019-02-28T10:25:14.240Z,9.73
2019-02-28T10:26:17.927Z,9.63
2019-02-28T10:27:23.275Z,9.13
2019-02-28T10:28:26.698Z,10.03
2019-02-28T10:29:30.083Z,11.03
2019-02-28T10:30:33.991Z,10.78
2019-02-28T10:31:38.399Z,8.68
2019-02-28T10:32:43.369Z,9.00
2019-02-28T10:33:49.539Z,10.05
2019-02-28T10:34:52.542Z,10.88
2019-02-28T10:35:55.983Z,14.85
2019-02-28T10:36:59.416Z,9.78
2019-02-28T10:38:02.951Z,10.98
2019-02-28T10:39:08.956Z,9.83
2019-02-28T10:40:25.839Z,12.07
2019-02-28T10:41:31.245Z,10.70
2019-02-28T10:42:36.980Z,9.13
2019-02-28T10:43:39.669Z,10.25
2019-02-28T10:44:43.166Z,11.60
2019-02-28T10:45:46.546Z,12.05
2019-02-28T10:46:50.294Z,10.30
2019-02-28T10:47:55.227Z,10.88
2019-02-28T10:48:58.752Z,10.00
2019-02-28T10:50:02.183Z,9.80
2019-02-28T10:51:12.798Z,10.75
2019-02-28T10:52:11.013Z,10.18
2019-02-28T10:53:14.466Z,11.73
2019-02-28T10:54:17.910Z,11.80
2019-02-28T10:55:22.412Z,11.55
2019-02-28T10:56:31.732Z,11.33
2019-02-28T10:57:32.043Z,11.33
2019-02-28T10:58:35.604Z,10.98
2019-02-28T10:59:39.305Z,11.10
2019-02-28T11:00:44.160Z,12.20
2019-02-28T11:01:47.680Z,10.32
2019-02-28T11:02:54.174Z,11.03
2019-02-28T11:03:56.771Z,11.20
2019-02-28T11:05:00.314Z,12.53
2019-02-28T11:06:04.061Z,12.75
2019-02-28T11:07:09.547Z,10.80
2019-02-28T11:08:18.353Z,12.98
2019-02-28T11:09:21.401Z,11.22
2019-02-28T11:10:35.029Z,11.83
2019-02-28T11:11:36.422Z,12.58
2019-02-28T11:12:39.921Z,11.88
2019-02-28T11:13:44.703Z,12.40
2019-02-28T11:14:48.279Z,11.80
2019-02-28T11:15:52.590Z,12.45
2019-02-28T11:16:59.382Z,13.32
2019-02-28T11:18:01.503Z,12.63
2019-02-28T11:19:05.277Z,12.23
2019-02-28T11:20:21.633Z,10.55
2019-02-28T11:21:16.379Z,11.97
2019-02-28T11:22:19.903Z,10.80
2019-02-28T11:23:23.592Z,11.50
2019-02-28T11:24:27.235Z,11.08
2019-02-28T11:25:34.650Z,11.53
2019-02-28T11:26:36.099Z,9.53
2019-02-28T11:27:41.271Z,10.23
2019-02-28T11:28:44.783Z,9.90
2019-02-28T11:29:48.230Z,10.10
2019-02-28T11:30:51.770Z,10.60
2019-02-28T11:31:55.350Z,11.10
2019-02-28T11:33:02.996Z,12.35
2019-02-28T11:34:04.926Z,10.90
2019-02-28T11:35:09.113Z,11.65
2019-02-28T11:36:12.703Z,11.45
2019-02-28T11:37:16.228Z,12.65
2019-02-28T11:38:21.575Z,11.38
2019-02-28T11:39:27.635Z,10.20
2019-02-28T11:40:30.523Z,11.50
2019-02-28T11:41:34.160Z,12.00
2019-02-28T11:42:37.707Z,10.68
2019-02-28T11:43:41.225Z,10.90
2019-02-28T11:44:46.755Z,10.93
2019-02-28T11:45:50.127Z,10.40
2019-02-28T11:46:53.644Z,10.65
2019-02-28T11:47:58.821Z,11.40
2019-02-28T11:49:02.309Z,11.40
2019-02-28T11:50:08.473Z,10.70
2019-02-28T11:51:14.549Z,11.28
2019-02-28T11:52:17.246Z,9.80
2019-02-28T11:53:20.877Z,11.18
2019-02-28T11:54:24.385Z,10.78
2019-02-28T11:55:27.979Z,10.88
2019-02-28T11:56:31.514Z,10.60
2019-02-28T11:57:37.695Z,10.72
2019-02-28T11:58:40.144Z,10.05
2019-02-28T11:59:43.585Z,10.08
2019-02-28T12:00:47.102Z,10.32
2019-02-28T12:01:50.622Z,11.00
2019-02-28T12:02:59.910Z,10.20
2019-02-28T12:03:59.403Z,10.20
2019-02-28T12:05:02.920Z,10.53
2019-02-28T12:06:06.950Z,11.05
2019-02-28T12:07:10.471Z,12.10
2019-02-28T12:08:13.909Z,10.93
2019-02-28T12:09:19.262Z,11.35
2019-02-28T12:10:22.818Z,10.00
2019-02-28T12:11:29.219Z,9.95
2019-02-28T12:12:32.687Z,10.10
2019-02-28T12:13:36.131Z,10.13
2019-02-28T12:14:39.577Z,10.60
2019-02-28T12:15:43.260Z,11.25
2019-02-28T12:16:46.765Z,10.43
2019-02-28T12:17:50.333Z,10.68
2019-02-28T12:18:53.922Z,10.48
2019-02-28T12:19:57.437Z,9.45
2019-02-28T12:21:02.049Z,9.65
2019-02-28T12:22:09.179Z,10.53
2019-02-28T12:23:11.485Z,11.80
2019-02-28T12:24:14.932Z,10.25
2019-02-28T12:25:20.066Z,11.55
2019-02-28T12:26:23.572Z,10.75
2019-02-28T12:27:27.587Z,10.15
2019-02-28T12:28:31.723Z,10.78
2019-02-28T12:29:35.232Z,10.40
2019-02-28T12:30:40.228Z,10.20
2019-02-28T12:31:43.918Z,10.38
2019-02-28T12:32:47.417Z,9.73
2019-02-28T12:33:53.468Z,10.50
2019-02-28T12:34:56.135Z,10.48
2019-02-28T12:35:59.583Z,10.28
2019-02-28T12:37:03.107Z,10.18
2019-02-28T12:38:06.699Z,9.93
2019-02-28T12:39:10.160Z,10.95
2019-02-28T12:40:21.506Z,11.25
2019-02-28T12:41:26.037Z,10.53
2019-02-28T12:42:31.628Z,10.75
2019-02-28T12:43:35.001Z,11.33
2019-02-28T12:44:38.673Z,10.30
2019-02-28T12:45:46.991Z,11.80
2019-02-28T12:46:49.874Z,11.50
2019-02-28T12:47:53.345Z,12.07
2019-02-28T12:48:56.848Z,11.70
2019-02-28T12:50:00.400Z,11.55
2019-02-28T12:51:05.309Z,12.20
2019-02-28T12:52:11.259Z,11.90
2019-02-28T12:53:14.782Z,12.68
2019-02-28T12:54:18.286Z,12.85
2019-02-28T12:55:22.140Z,11.60
2019-02-28T12:56:25.623Z,11.55
2019-02-28T12:57:36.013Z,10.80
2019-02-28T12:58:41.615Z,11.80
2019-02-28T12:59:46.003Z,12.80
2019-02-28T13:00:50.152Z,11.80
2019-02-28T13:01:53.669Z,10.90
2019-02-28T13:02:57.111Z,11.73
2019-02-28T13:04:00.725Z,10.70
2019-02-28T13:05:09.233Z,13.70
2019-02-28T13:06:12.030Z,10.83
2019-02-28T13:07:15.629Z,10.97
2019-02-28T13:08:22.322Z,11.83
2019-02-28T13:09:27.941Z,10.70
2019-02-28T13:10:36.522Z,11.90
2019-02-28T13:11:47.010Z,10.53
2019-02-28T13:12:53.062Z,10.47
2019-02-28T13:13:56.497Z,13.50
2019-02-28T13:15:00.218Z,12.77
2019-02-28T13:16:04.151Z,13.13
2019-02-28T13:17:07.615Z,11.30
2019-02-28T13:18:11.132Z,10.50
2019-02-28T13:19:16.376Z,11.07
2019-02-28T13:20:22.450Z,10.67
2019-02-28T13:21:26.127Z,11.97
2019-02-28T13:22:29.824Z,11.93
2019-02-28T13:23:34.082Z,11.80
2019-02-28T13:24:37.662Z,11.33
2019-02-28T13:25:41.106Z,10.83
2019-02-28T13:26:44.721Z,10.60
2019-02-28T13:27:50.144Z,11.33
2019-02-28T13:28:54.619Z,12.10
2019-02-28T13:29:58.608Z,11.30
2019-02-28T13:31:02.365Z,10.37
2019-02-28T13:32:06.217Z,10.80
2019-02-28T13:33:11.052Z,11.20
2019-02-28T13:34:14.955Z,11.57
2019-02-28T13:35:31.824Z,11.80
2019-02-28T13:36:35.408Z,12.70
2019-02-28T13:37:40.727Z,11.60
2019-02-28T13:38:44.317Z,12.03
2019-02-28T13:39:47.885Z,12.30
2019-02-28T13:40:51.336Z,12.73
2019-02-28T13:41:54.765Z,11.93
2019-02-28T13:42:58.255Z,12.30
2019-02-28T13:44:01.727Z,12.60
2019-02-28T13:45:13.263Z,13.63
2019-02-28T13:46:13.428Z,12.17
2019-02-28T13:47:16.966Z,12.90
2019-02-28T13:48:25.989Z,13.00
2019-02-28T13:49:25.730Z,11.73
2019-02-28T13:50:33.771Z,12.13
2019-02-28T13:51:42.043Z,12.10
2019-02-28T13:52:42.531Z,12.20
2019-02-28T13:53:45.964Z,11.20
2019-02-28T13:54:49.549Z,12.20
2019-02-28T13:55:57.900Z,14.13
2019-02-28T13:56:58.097Z,12.67
2019-02-28T13:58:01.669Z,13.67
2019-02-28T13:59:05.261Z,14.13
2019-02-28T14:00:23.020Z,13.40
2019-02-28T14:01:26.521Z,13.07
2019-02-28T14:02:33.676Z,11.73
2019-02-28T14:03:35.193Z,12.30